Cloverly, Maryland
Current Conditions -  °F | °C
As of 3:00 PM on Saturday 25 Oct 2014 (Local Time) from KCGS Reporting Station
Clear Clear  
Wind Chill: 72°   Ceiling: Unl
Heat Index: 72°   Visibility: 10mi
Dew Point: 41°   Wind: 7mph
Humidity: 33%   Direction: 250°WSW
Pressure: 29.8"   Gusts: 17mph
Location:  39.066°N, 76.9783°W
Report Text: KCGS 251900Z AUTO 25006G15KT 230V290 10SM CLR 22/05 A2980 RMK AO1
Loading
Personal Weather Stations






























Interactive Weather Map
Tropical Storm Tracking
New forecast layout! Learn more

10-Day Weather Forecast

Advertisements
Track Severe Weather on mobile